sensor_id;sensor_type;location;lat;lon;timestamp;temperature;humidity
69359;HTU21D;56520;49.066;8.660;2024-03-23T00:51:26;8.83;87.67
69359;HTU21D;56520;49.066;8.660;2024-03-23T00:53:52;8.74;87.78
69359;HTU21D;56520;49.066;8.660;2024-03-23T00:56:17;8.65;87.96
69359;HTU21D;56520;49.066;8.660;2024-03-23T00:58:43;8.57;87.99
69359;HTU21D;56520;49.066;8.660;2024-03-23T01:01:08;8.56;88.39
69359;HTU21D;56520;49.066;8.660;2024-03-23T01:03:33;8.55;88.41
69359;HTU21D;56520;49.066;8.660;2024-03-23T01:06:00;8.61;88.77
69359;HTU21D;56520;49.066;8.660;2024-03-23T01:08:25;8.64;88.53
69359;HTU21D;56520;49.066;8.660;2024-03-23T01:10:55;8.61;88.54
69359;HTU21D;56520;49.066;8.660;2024-03-23T01:13:21;8.59;88.90
69359;HTU21D;56520;49.066;8.660;2024-03-23T01:15:51;8.57;88.81
69359;HTU21D;56520;49.066;8.660;2024-03-23T01:18:20;8.58;88.83
69359;HTU21D;56520;49.066;8.660;2024-03-23T01:20:46;8.62;88.64
69359;HTU21D;56520;49.066;8.660;2024-03-23T01:23:11;8.61;88.52
69359;HTU21D;56520;49.066;8.660;2024-03-23T01:25:37;8.52;88.50
69359;HTU21D;56520;49.066;8.660;2024-03-23T01:28:03;8.41;88.61
69359;HTU21D;56520;49.066;8.660;2024-03-23T01:30:28;8.31;88.82
69359;HTU21D;56520;49.066;8.660;2024-03-23T01:32:54;8.23;89.07
69359;HTU21D;56520;49.066;8.660;2024-03-23T01:35:19;8.27;89.46
69359;HTU21D;56520;49.066;8.660;2024-03-23T01:37:44;8.36;89.56
69359;HTU21D;56520;49.066;8.660;2024-03-23T01:40:10;8.44;89.59
69359;HTU21D;56520;49.066;8.660;2024-03-23T01:42:38;8.48;89.42
69359;HTU21D;56520;49.066;8.660;2024-03-23T01:45:07;8.48;89.20
69359;HTU21D;56520;49.066;8.660;2024-03-23T01:47:33;8.51;89.16
69359;HTU21D;56520;49.066;8.660;2024-03-23T01:49:59;8.52;89.34
69359;HTU21D;56520;49.066;8.660;2024-03-23T01:52:25;8.52;89.15
69359;HTU21D;56520;49.066;8.660;2024-03-23T01:54:50;8.53;89.08
69359;HTU21D;56520;49.066;8.660;2024-03-23T01:57:17;8.55;88.99
69359;HTU21D;56520;49.066;8.660;2024-03-23T01:59:42;8.59;88.89
69359;HTU21D;56520;49.066;8.660;2024-03-23T02:02:07;8.67;88.67
69359;HTU21D;56520;49.066;8.660;2024-03-23T02:04:33;8.75;88.44
69359;HTU21D;56520;49.066;8.660;2024-03-23T02:06:58;8.82;88.26
69359;HTU21D;56520;49.066;8.660;2024-03-23T02:09:24;8.86;88.08
69359;HTU21D;56520;49.066;8.660;2024-03-23T02:11:50;8.91;87.96
69359;HTU21D;56520;49.066;8.660;2024-03-23T02:14:16;8.93;87.79
69359;HTU21D;56520;49.066;8.660;2024-03-23T02:16:43;8.96;87.72
69359;HTU21D;56520;49.066;8.660;2024-03-23T02:19:08;8.96;87.61
69359;HTU21D;56520;49.066;8.660;2024-03-23T02:21:33;8.93;87.67
69359;HTU21D;56520;49.066;8.660;2024-03-23T02:23:59;8.94;87.73
69359;HTU21D;56520;49.066;8.660;2024-03-23T02:26:25;8.98;87.70
69359;HTU21D;56520;49.066;8.660;2024-03-23T02:28:51;9.00;87.66
69359;HTU21D;56520;49.066;8.660;2024-03-23T02:31:16;8.97;87.68
69359;HTU21D;56520;49.066;8.660;2024-03-23T02:33:41;9.01;87.73
69359;HTU21D;56520;49.066;8.660;2024-03-23T02:36:07;9.05;87.73
69359;HTU21D;56520;49.066;8.660;2024-03-23T02:38:32;9.16;87.64
69359;HTU21D;56520;49.066;8.660;2024-03-23T02:41:04;9.29;87.37
69359;HTU21D;56520;49.066;8.660;2024-03-23T02:43:29;9.42;87.14
69359;HTU21D;56520;49.066;8.660;2024-03-23T02:45:55;9.67;86.71
69359;HTU21D;56520;49.066;8.660;2024-03-23T02:48:20;9.94;85.78
69359;HTU21D;56520;49.066;8.660;2024-03-23T02:50:46;10.26;84.87
69359;HTU21D;56520;49.066;8.660;2024-03-23T02:53:11;10.60;83.14
69359;HTU21D;56520;49.066;8.660;2024-03-23T02:55:36;10.89;82.39
69359;HTU21D;56520;49.066;8.660;2024-03-23T02:58:02;11.17;80.69
69359;HTU21D;56520;49.066;8.660;2024-03-23T03:00:28;11.42;80.10
69359;HTU21D;56520;49.066;8.660;2024-03-23T03:02:54;11.56;79.19
69359;HTU21D;56520;49.066;8.660;2024-03-23T03:05:19;11.85;76.36
69359;HTU21D;56520;49.066;8.660;2024-03-23T03:07:45;12.06;76.74
69359;HTU21D;56520;49.066;8.660;2024-03-23T03:10:10;12.11;76.39
69359;HTU21D;56520;49.066;8.660;2024-03-23T03:12:37;12.14;76.41
69359;HTU21D;56520;49.066;8.660;2024-03-23T03:15:03;12.15;76.37
69359;HTU21D;56520;49.066;8.660;2024-03-23T03:17:30;12.11;76.65
69359;HTU21D;56520;49.066;8.660;2024-03-23T03:19:55;12.01;77.05
69359;HTU21D;56520;49.066;8.660;2024-03-23T03:22:24;11.94;77.04
69359;HTU21D;56520;49.066;8.660;2024-03-23T03:24:49;11.92;77.14
69359;HTU21D;56520;49.066;8.660;2024-03-23T03:27:15;11.91;76.92
69359;HTU21D;56520;49.066;8.660;2024-03-23T03:29:40;11.87;77.23
69359;HTU21D;56520;49.066;8.660;2024-03-23T03:32:06;11.84;77.46
69359;HTU21D;56520;49.066;8.660;2024-03-23T03:34:31;11.86;77.36
69359;HTU21D;56520;49.066;8.660;2024-03-23T03:36:57;11.88;77.38
69359;HTU21D;56520;49.066;8.660;2024-03-23T03:39:22;11.85;77.76
69359;HTU21D;56520;49.066;8.660;2024-03-23T03:41:49;11.89;77.47
69359;HTU21D;56520;49.066;8.660;2024-03-23T03:44:14;11.91;77.49
69359;HTU21D;56520;49.066;8.660;2024-03-23T03:46:39;11.96;77.33
69359;HTU21D;56520;49.066;8.660;2024-03-23T03:49:05;11.90;77.66
69359;HTU21D;56520;49.066;8.660;2024-03-23T03:51:30;11.92;77.67
69359;HTU21D;56520;49.066;8.660;2024-03-23T03:53:56;11.91;77.74
69359;HTU21D;56520;49.066;8.660;2024-03-23T03:56:21;11.89;77.76
69359;HTU21D;56520;49.066;8.660;2024-03-23T03:58:48;11.85;78.00
69359;HTU21D;56520;49.066;8.660;2024-03-23T04:01:13;11.85;77.99
69359;HTU21D;56520;49.066;8.660;2024-03-23T04:03:38;11.82;78.21
69359;HTU21D;56520;49.066;8.660;2024-03-23T04:06:09;11.78;78.37
69359;HTU21D;56520;49.066;8.660;2024-03-23T04:08:34;11.78;78.33
69359;HTU21D;56520;49.066;8.660;2024-03-23T04:10:59;11.77;78.12
69359;HTU21D;56520;49.066;8.660;2024-03-23T04:13:25;11.92;76.47
69359;HTU21D;56520;49.066;8.660;2024-03-23T04:15:56;12.02;75.31
69359;HTU21D;56520;49.066;8.660;2024-03-23T04:18:22;12.02;75.09
69359;HTU21D;56520;49.066;8.660;2024-03-23T04:20:51;12.01;75.05
69359;HTU21D;56520;49.066;8.660;2024-03-23T04:23:17;11.99;74.27
69359;HTU21D;56520;49.066;8.660;2024-03-23T04:25:42;11.99;74.26
69359;HTU21D;56520;49.066;8.660;2024-03-23T04:28:07;12.02;73.68
69359;HTU21D;56520;49.066;8.660;2024-03-23T04:30:33;12.00;73.61
69359;HTU21D;56520;49.066;8.660;2024-03-23T04:32:58;11.94;74.25
69359;HTU21D;56520;49.066;8.660;2024-03-23T04:35:24;11.93;73.90
69359;HTU21D;56520;49.066;8.660;2024-03-23T04:37:51;11.91;74.04
69359;HTU21D;56520;49.066;8.660;2024-03-23T04:40:17;11.87;73.84
69359;HTU21D;56520;49.066;8.660;2024-03-23T04:42:44;12.02;72.64
69359;HTU21D;56520;49.066;8.660;2024-03-23T04:45:09;12.00;72.70
69359;HTU21D;56520;49.066;8.660;2024-03-23T04:47:37;11.99;72.93
69359;HTU21D;56520;49.066;8.660;2024-03-23T04:50:04;11.89;73.22
69359;HTU21D;56520;49.066;8.660;2024-03-23T04:52:29;11.91;72.90
69359;HTU21D;56520;49.066;8.660;2024-03-23T04:54:55;11.88;73.03
69359;HTU21D;56520;49.066;8.660;2024-03-23T04:57:20;11.88;73.46
69359;HTU21D;56520;49.066;8.660;2024-03-23T04:59:46;11.68;75.01
69359;HTU21D;56520;49.066;8.660;2024-03-23T05:02:12;11.63;74.99
69359;HTU21D;56520;49.066;8.660;2024-03-23T05:04:38;11.49;74.93
69359;HTU21D;56520;49.066;8.660;2024-03-23T05:07:03;11.27;75.90
69359;HTU21D;56520;49.066;8.660;2024-03-23T05:09:29;11.08;77.12
69359;HTU21D;56520;49.066;8.660;2024-03-23T05:12:01;11.02;76.86
69359;HTU21D;56520;49.066;8.660;2024-03-23T05:14:26;11.02;76.84
69359;HTU21D;56520;49.066;8.660;2024-03-23T05:16:52;10.92;77.50
69359;HTU21D;56520;49.066;8.660;2024-03-23T05:19:18;10.84;77.48
69359;HTU21D;56520;49.066;8.660;2024-03-23T05:21:43;11.02;75.61
69359;HTU21D;56520;49.066;8.660;2024-03-23T05:24:09;11.08;75.18
69359;HTU21D;56520;49.066;8.660;2024-03-23T05:26:34;11.01;75.92
69359;HTU21D;56520;49.066;8.660;2024-03-23T05:29:01;11.01;75.57
69359;HTU21D;56520;49.066;8.660;2024-03-23T05:31:28;10.99;74.55
69359;HTU21D;56520;49.066;8.660;2024-03-23T05:33:53;11.10;73.21
69359;HTU21D;56520;49.066;8.660;2024-03-23T05:36:19;11.04;72.25
69359;HTU21D;56520;49.066;8.660;2024-03-23T05:38:45;10.98;71.63
69359;HTU21D;56520;49.066;8.660;2024-03-23T05:41:10;10.89;72.63
69359;HTU21D;56520;49.066;8.660;2024-03-23T05:43:36;10.80;73.32
69359;HTU21D;56520;49.066;8.660;2024-03-23T05:46:01;10.77;72.96
69359;HTU21D;56520;49.066;8.660;2024-03-23T05:48:28;10.72;73.07
69359;HTU21D;56520;49.066;8.660;2024-03-23T05:50:54;10.74;73.27
69359;HTU21D;56520;49.066;8.660;2024-03-23T05:53:20;10.63;73.74
69359;HTU21D;56520;49.066;8.660;2024-03-23T05:55:48;10.59;73.36
69359;HTU21D;56520;49.066;8.660;2024-03-23T05:58:17;10.51;73.74
69359;HTU21D;56520;49.066;8.660;2024-03-23T06:00:44;10.50;73.92
69359;HTU21D;56520;49.066;8.660;2024-03-23T06:03:09;10.46;74.40
69359;HTU21D;56520;49.066;8.660;2024-03-23T06:05:38;10.44;74.08
69359;HTU21D;56520;49.066;8.660;2024-03-23T06:08:04;10.43;74.22
69359;HTU21D;56520;49.066;8.660;2024-03-23T06:10:29;10.45;73.77
69359;HTU21D;56520;49.066;8.660;2024-03-23T06:12:55;10.40;74.16
69359;HTU21D;56520;49.066;8.660;2024-03-23T06:15:21;10.37;74.09
69359;HTU21D;56520;49.066;8.660;2024-03-23T06:17:48;10.35;74.43
69359;HTU21D;56520;49.066;8.660;2024-03-23T06:20:13;10.29;74.46
69359;HTU21D;56520;49.066;8.660;2024-03-23T06:22:38;10.28;74.93
69359;HTU21D;56520;49.066;8.660;2024-03-23T06:25:04;10.15;75.31
69359;HTU21D;56520;49.066;8.660;2024-03-23T06:27:30;10.05;75.76
69359;HTU21D;56520;49.066;8.660;2024-03-23T06:29:57;10.07;75.44
69359;HTU21D;56520;49.066;8.660;2024-03-23T06:32:23;10.01;76.07
69359;HTU21D;56520;49.066;8.660;2024-03-23T06:34:48;9.96;76.05
69359;HTU21D;56520;49.066;8.660;2024-03-23T06:37:13;9.93;76.10
69359;HTU21D;56520;49.066;8.660;2024-03-23T06:39:39;9.89;75.35
69359;HTU21D;56520;49.066;8.660;2024-03-23T06:42:04;9.92;74.81
69359;HTU21D;56520;49.066;8.660;2024-03-23T06:44:30;9.93;73.79
69359;HTU21D;56520;49.066;8.660;2024-03-23T06:46:56;9.94;73.31
69359;HTU21D;56520;49.066;8.660;2024-03-23T06:49:25;9.95;72.47
69359;HTU21D;56520;49.066;8.660;2024-03-23T06:51:50;9.91;72.93
69359;HTU21D;56520;49.066;8.660;2024-03-23T06:54:19;9.91;72.83
69359;HTU21D;56520;49.066;8.660;2024-03-23T06:56:45;9.88;72.48
69359;HTU21D;56520;49.066;8.660;2024-03-23T06:59:10;9.82;72.26
69359;HTU21D;56520;49.066;8.660;2024-03-23T07:01:36;9.71;72.89
69359;HTU21D;56520;49.066;8.660;2024-03-23T07:04:01;9.69;72.61
69359;HTU21D;56520;49.066;8.660;2024-03-23T07:06:27;9.67;72.73
69359;HTU21D;56520;49.066;8.660;2024-03-23T07:08:53;9.65;73.15
69359;HTU21D;56520;49.066;8.660;2024-03-23T07:11:22;9.70;72.35
69359;HTU21D;56520;49.066;8.660;2024-03-23T07:13:54;9.65;72.39
69359;HTU21D;56520;49.066;8.660;2024-03-23T07:16:20;9.53;73.06
69359;HTU21D;56520;49.066;8.660;2024-03-23T07:18:45;9.49;72.95
69359;HTU21D;56520;49.066;8.660;2024-03-23T07:21:11;9.48;73.31
69359;HTU21D;56520;49.066;8.660;2024-03-23T07:23:36;9.34;74.63
69359;HTU21D;56520;49.066;8.660;2024-03-23T07:26:04;9.21;75.80
69359;HTU21D;56520;49.066;8.660;2024-03-23T07:28:30;8.96;77.60
69359;HTU21D;56520;49.066;8.660;2024-03-23T07:31:07;8.66;79.12
69359;HTU21D;56520;49.066;8.660;2024-03-23T07:33:37;8.41;81.14
69359;HTU21D;56520;49.066;8.660;2024-03-23T07:36:03;8.22;81.00
69359;HTU21D;56520;49.066;8.660;2024-03-23T07:38:29;8.01;81.69
69359;HTU21D;56520;49.066;8.660;2024-03-23T07:41:07;7.91;83.04
69359;HTU21D;56520;49.066;8.660;2024-03-23T07:43:34;7.86;82.81
69359;HTU21D;56520;49.066;8.660;2024-03-23T07:46:00;7.72;82.90
69359;HTU21D;56520;49.066;8.660;2024-03-23T07:48:26;7.72;83.34
69359;HTU21D;56520;49.066;8.660;2024-03-23T07:51:21;7.92;83.36
69359;HTU21D;56520;49.066;8.660;2024-03-23T07:53:47;8.20;82.11
69359;HTU21D;56520;49.066;8.660;2024-03-23T07:56:14;8.33;80.88
69359;HTU21D;56520;49.066;8.660;2024-03-23T07:58:44;8.33;81.27
69359;HTU21D;56520;49.066;8.660;2024-03-23T08:01:12;8.37;80.40
69359;HTU21D;56520;49.066;8.660;2024-03-23T08:03:40;8.47;80.56
69359;HTU21D;56520;49.066;8.660;2024-03-23T08:06:18;8.60;80.07
69359;HTU21D;56520;49.066;8.660;2024-03-23T08:08:46;8.78;78.58
69359;HTU21D;56520;49.066;8.660;2024-03-23T08:11:12;8.90;76.71
69359;HTU21D;56520;49.066;8.660;2024-03-23T08:13:40;9.12;77.18
69359;HTU21D;56520;49.066;8.660;2024-03-23T08:16:06;9.31;75.83
69359;HTU21D;56520;49.066;8.660;2024-03-23T08:18:32;9.39;75.30
69359;HTU21D;56520;49.066;8.660;2024-03-23T08:21:02;9.40;75.46
69359;HTU21D;56520;49.066;8.660;2024-03-23T08:23:29;9.50;74.28
69359;HTU21D;56520;49.066;8.660;2024-03-23T08:25:58;9.55;73.12
69359;HTU21D;56520;49.066;8.660;2024-03-23T08:28:25;9.47;72.48
69359;HTU21D;56520;49.066;8.660;2024-03-23T08:30:51;9.30;73.26
69359;HTU21D;56520;49.066;8.660;2024-03-23T08:33:17;9.22;72.06
69359;HTU21D;56520;49.066;8.660;2024-03-23T08:35:42;9.03;72.45
69359;HTU21D;56520;49.066;8.660;2024-03-23T08:38:07;8.95;73.95
69359;HTU21D;56520;49.066;8.660;2024-03-23T08:40:33;8.95;74.15
69359;HTU21D;56520;49.066;8.660;2024-03-23T08:42:58;9.20;73.26
69359;HTU21D;56520;49.066;8.660;2024-03-23T08:45:26;9.54;71.35
69359;HTU21D;56520;49.066;8.660;2024-03-23T08:47:52;9.97;70.14
69359;HTU21D;56520;49.066;8.660;2024-03-23T08:50:17;10.20;68.49
69359;HTU21D;56520;49.066;8.660;2024-03-23T08:52:43;10.07;67.75
69359;HTU21D;56520;49.066;8.660;2024-03-23T08:55:08;9.83;68.28
69359;HTU21D;56520;49.066;8.660;2024-03-23T08:57:35;9.66;68.57
69359;HTU21D;56520;49.066;8.660;2024-03-23T09:00:00;9.69;66.98
69359;HTU21D;56520;49.066;8.660;2024-03-23T09:02:26;9.56;67.25
69359;HTU21D;56520;49.066;8.660;2024-03-23T09:04:52;9.71;67.12
69359;HTU21D;56520;49.066;8.660;2024-03-23T09:07:17;10.53;64.29
69359;HTU21D;56520;49.066;8.660;2024-03-23T09:09:42;11.32;60.89
69359;HTU21D;56520;49.066;8.660;2024-03-23T09:12:08;11.96;55.62
69359;HTU21D;56520;49.066;8.660;2024-03-23T09:14:33;12.47;55.66
69359;HTU21D;56520;49.066;8.660;2024-03-23T09:16:59;12.72;53.59
69359;HTU21D;56520;49.066;8.660;2024-03-23T09:19:28;13.21;51.21
69359;HTU21D;56520;49.066;8.660;2024-03-23T09:21:53;13.22;53.34
69359;HTU21D;56520;49.066;8.660;2024-03-23T09:24:19;13.70;52.98
69359;HTU21D;56520;49.066;8.660;2024-03-23T09:26:44;13.95;49.81
69359;HTU21D;56520;49.066;8.660;2024-03-23T09:29:09;13.54;48.19
69359;HTU21D;56520;49.066;8.660;2024-03-23T09:31:35;13.12;48.63
69359;HTU21D;56520;49.066;8.660;2024-03-23T09:34:00;12.77;50.20
69359;HTU21D;56520;49.066;8.660;2024-03-23T09:36:25;12.59;49.25
69359;HTU21D;56520;49.066;8.660;2024-03-23T09:38:51;12.33;49.89
69359;HTU21D;56520;49.066;8.660;2024-03-23T09:41:17;12.03;52.36
69359;HTU21D;56520;49.066;8.660;2024-03-23T09:43:43;11.88;51.58
69359;HTU21D;56520;49.066;8.660;2024-03-23T09:46:08;11.69;51.65
69359;HTU21D;56520;49.066;8.660;2024-03-23T09:48:34;11.54;52.56
69359;HTU21D;56520;49.066;8.660;2024-03-23T09:50:59;11.33;53.53
69359;HTU21D;56520;49.066;8.660;2024-03-23T09:53:25;11.08;54.23
69359;HTU21D;56520;49.066;8.660;2024-03-23T09:55:50;10.75;55.74
69359;HTU21D;56520;49.066;8.660;2024-03-23T09:58:17;10.48;57.13
69359;HTU21D;56520;49.066;8.660;2024-03-23T10:00:43;10.15;61.33
69359;HTU21D;56520;49.066;8.660;2024-03-23T10:03:09;9.94;62.46
69359;HTU21D;56520;49.066;8.660;2024-03-23T10:05:36;9.74;63.58
69359;HTU21D;56520;49.066;8.660;2024-03-23T10:10:42;9.40;63.01
69359;HTU21D;56520;49.066;8.660;2024-03-23T10:13:07;9.22;63.66
69359;HTU21D;56520;49.066;8.660;2024-03-23T10:15:36;9.23;64.31
69359;HTU21D;56520;49.066;8.660;2024-03-23T10:18:18;9.22;65.56
69359;HTU21D;56520;49.066;8.660;2024-03-23T10:20:50;9.18;65.79
69359;HTU21D;56520;49.066;8.660;2024-03-23T10:23:16;9.29;67.07
69359;HTU21D;56520;49.066;8.660;2024-03-23T10:25:42;9.40;65.44
69359;HTU21D;56520;49.066;8.660;2024-03-23T10:28:07;9.42;65.40
69359;HTU21D;56520;49.066;8.660;2024-03-23T10:30:34;9.46;66.00
69359;HTU21D;56520;49.066;8.660;2024-03-23T10:33:12;9.53;65.10
69359;HTU21D;56520;49.066;8.660;2024-03-23T10:35:38;9.53;64.98
69359;HTU21D;56520;49.066;8.660;2024-03-23T10:38:07;9.62;65.11
69359;HTU21D;56520;49.066;8.660;2024-03-23T10:40:36;9.90;63.75
69359;HTU21D;56520;49.066;8.660;2024-03-23T10:43:03;10.05;63.99
69359;HTU21D;56520;49.066;8.660;2024-03-23T10:45:29;10.11;64.22
69359;HTU21D;56520;49.066;8.660;2024-03-23T10:47:54;10.13;64.54
69359;HTU21D;56520;49.066;8.660;2024-03-23T10:50:20;10.13;64.78
69359;HTU21D;56520;49.066;8.660;2024-03-23T10:52:47;10.20;64.96
69359;HTU21D;56520;49.066;8.660;2024-03-23T10:55:14;10.27;65.21
69359;HTU21D;56520;49.066;8.660;2024-03-23T10:57:54;10.31;65.08
69359;HTU21D;56520;49.066;8.660;2024-03-23T11:00:20;10.45;66.14
69359;HTU21D;56520;49.066;8.660;2024-03-23T11:02:48;10.55;65.59
69359;HTU21D;56520;49.066;8.660;2024-03-23T11:07:52;10.63;66.41
69359;HTU21D;56520;49.066;8.660;2024-03-23T11:10:29;11.11;64.15
69359;HTU21D;56520;49.066;8.660;2024-03-23T11:12:56;11.44;62.41
69359;HTU21D;56520;49.066;8.660;2024-03-23T11:15:22;11.44;62.61
69359;HTU21D;56520;49.066;8.660;2024-03-23T11:20:33;11.71;61.83
69359;HTU21D;56520;49.066;8.660;2024-03-23T11:22:59;11.72;61.97
69359;HTU21D;56520;49.066;8.660;2024-03-23T11:25:26;11.97;59.83
69359;HTU21D;56520;49.066;8.660;2024-03-23T11:28:11;12.13;58.52
69359;HTU21D;56520;49.066;8.660;2024-03-23T11:30:37;12.31;60.14
69359;HTU21D;56520;49.066;8.660;2024-03-23T11:33:05;12.70;57.89
69359;HTU21D;56520;49.066;8.660;2024-03-23T11:35:38;12.88;56.52
69359;HTU21D;56520;49.066;8.660;2024-03-23T11:38:12;12.64;56.60
69359;HTU21D;56520;49.066;8.660;2024-03-23T11:40:43;12.42;58.43
69359;HTU21D;56520;49.066;8.660;2024-03-23T11:45:39;13.08;56.40
69359;HTU21D;56520;49.066;8.660;2024-03-23T11:50:33;12.35;59.02
69359;HTU21D;56520;49.066;8.660;2024-03-23T11:53:18;12.28;58.62
69359;HTU21D;56520;49.066;8.660;2024-03-23T11:55:48;11.93;58.96
69359;HTU21D;56520;49.066;8.660;2024-03-23T11:58:15;11.79;58.69
69359;HTU21D;56520;49.066;8.660;2024-03-23T12:00:40;12.26;59.70
69359;HTU21D;56520;49.066;8.660;2024-03-23T12:03:06;12.92;57.06
69359;HTU21D;56520;49.066;8.660;2024-03-23T12:05:33;12.92;55.46
69359;HTU21D;56520;49.066;8.660;2024-03-23T12:08:24;12.57;55.21
69359;HTU21D;56520;49.066;8.660;2024-03-23T12:11:13;12.23;57.05
69359;HTU21D;56520;49.066;8.660;2024-03-23T12:13:41;12.06;59.40
69359;HTU21D;56520;49.066;8.660;2024-03-23T12:18:37;12.40;57.60
69359;HTU21D;56520;49.066;8.660;2024-03-23T12:21:03;12.41;58.16
69359;HTU21D;56520;49.066;8.660;2024-03-23T12:23:28;12.44;58.25
69359;HTU21D;56520;49.066;8.660;2024-03-23T12:25:54;12.55;57.39
69359;HTU21D;56520;49.066;8.660;2024-03-23T12:28:19;12.69;55.45
69359;HTU21D;56520;49.066;8.660;2024-03-23T12:30:45;12.57;55.81
69359;HTU21D;56520;49.066;8.660;2024-03-23T12:33:10;12.38;55.24
69359;HTU21D;56520;49.066;8.660;2024-03-23T12:35:36;12.44;55.44
69359;HTU21D;56520;49.066;8.660;2024-03-23T12:38:02;12.76;54.26
69359;HTU21D;56520;49.066;8.660;2024-03-23T12:40:30;12.94;55.67
69359;HTU21D;56520;49.066;8.660;2024-03-23T12:42:56;13.56;52.31
69359;HTU21D;56520;49.066;8.660;2024-03-23T12:45:22;13.97;51.87
69359;HTU21D;56520;49.066;8.660;2024-03-23T12:47:47;14.20;46.58
69359;HTU21D;56520;49.066;8.660;2024-03-23T12:50:13;13.76;48.73
69359;HTU21D;56520;49.066;8.660;2024-03-23T12:52:38;13.41;50.20
69359;HTU21D;56520;49.066;8.660;2024-03-23T12:55:04;13.68;47.78
69359;HTU21D;56520;49.066;8.660;2024-03-23T12:57:33;14.44;48.67
69359;HTU21D;56520;49.066;8.660;2024-03-23T12:59:58;15.04;48.52
69359;HTU21D;56520;49.066;8.660;2024-03-23T13:02:24;15.39;46.83
69359;HTU21D;56520;49.066;8.660;2024-03-23T13:04:51;15.52;43.58
69359;HTU21D;56520;49.066;8.660;2024-03-23T13:07:20;15.06;44.46
69359;HTU21D;56520;49.066;8.660;2024-03-23T13:09:46;14.22;45.78
69359;HTU21D;56520;49.066;8.660;2024-03-23T13:12:12;12.94;48.38
69359;HTU21D;56520;49.066;8.660;2024-03-23T13:14:38;11.60;52.88
69359;HTU21D;56520;49.066;8.660;2024-03-23T13:17:05;10.49;55.81
69359;HTU21D;56520;49.066;8.660;2024-03-23T13:19:32;9.79;58.62
69359;HTU21D;56520;49.066;8.660;2024-03-23T13:21:58;8.89;63.94
69359;HTU21D;56520;49.066;8.660;2024-03-23T13:24:27;8.16;67.10
69359;HTU21D;56520;49.066;8.660;2024-03-23T13:26:54;8.20;67.82
69359;HTU21D;56520;49.066;8.660;2024-03-23T13:29:20;9.06;67.54
69359;HTU21D;56520;49.066;8.660;2024-03-23T13:31:46;9.84;63.63
69359;HTU21D;56520;49.066;8.660;2024-03-23T13:34:12;10.29;61.97
69359;HTU21D;56520;49.066;8.660;2024-03-23T13:36:40;10.92;57.83
69359;HTU21D;56520;49.066;8.660;2024-03-23T13:39:06;11.09;55.91
69359;HTU21D;56520;49.066;8.660;2024-03-23T13:41:45;11.09;55.59
69359;HTU21D;56520;49.066;8.660;2024-03-23T13:44:12;11.66;51.63
69359;HTU21D;56520;49.066;8.660;2024-03-23T13:46:41;11.93;51.37
69359;HTU21D;56520;49.066;8.660;2024-03-23T13:49:27;11.97;50.17
69359;HTU21D;56520;49.066;8.660;2024-03-23T13:51:54;11.55;52.11
69359;HTU21D;56520;49.066;8.660;2024-03-23T13:54:20;11.33;52.04
69359;HTU21D;56520;49.066;8.660;2024-03-23T13:56:48;10.93;53.61
69359;HTU21D;56520;49.066;8.660;2024-03-23T13:59:13;10.72;54.72
69359;HTU21D;56520;49.066;8.660;2024-03-23T14:01:39;10.87;53.59
69359;HTU21D;56520;49.066;8.660;2024-03-23T14:04:04;11.31;53.27
69359;HTU21D;56520;49.066;8.660;2024-03-23T14:06:29;11.77;52.12
69359;HTU21D;56520;49.066;8.660;2024-03-23T14:08:55;12.05;51.20
69359;HTU21D;56520;49.066;8.660;2024-03-23T14:11:20;12.21;52.16
69359;HTU21D;56520;49.066;8.660;2024-03-23T14:13:46;12.67;48.93
69359;HTU21D;56520;49.066;8.660;2024-03-23T14:16:11;12.50;48.62
69359;HTU21D;56520;49.066;8.660;2024-03-23T14:18:36;12.07;49.89
69359;HTU21D;56520;49.066;8.660;2024-03-23T14:21:02;11.69;50.82
69359;HTU21D;56520;49.066;8.660;2024-03-23T14:23:29;11.17;53.92
69359;HTU21D;56520;49.066;8.660;2024-03-23T14:25:58;10.00;61.69
69359;HTU21D;56520;49.066;8.660;2024-03-23T14:28:24;9.62;64.85
69359;HTU21D;56520;49.066;8.660;2024-03-23T14:30:50;9.57;66.38
69359;HTU21D;56520;49.066;8.660;2024-03-23T14:33:16;9.85;65.73
69359;HTU21D;56520;49.066;8.660;2024-03-23T14:35:43;9.94;63.41
69359;HTU21D;56520;49.066;8.660;2024-03-23T14:38:08;9.71;64.21
69359;HTU21D;56520;49.066;8.660;2024-03-23T14:40:34;9.57;60.93
69359;HTU21D;56520;49.066;8.660;2024-03-23T14:42:59;9.22;62.29
69359;HTU21D;56520;49.066;8.660;2024-03-23T14:45:25;9.24;62.86
69359;HTU21D;56520;49.066;8.660;2024-03-23T14:47:51;9.42;61.85
69359;HTU21D;56520;49.066;8.660;2024-03-23T14:50:16;9.66;59.41
69359;HTU21D;56520;49.066;8.660;2024-03-23T14:52:44;9.93;58.61
69359;HTU21D;56520;49.066;8.660;2024-03-23T14:55:10;10.35;58.77
69359;HTU21D;56520;49.066;8.660;2024-03-23T14:57:36;10.70;57.49
69359;HTU21D;56520;49.066;8.660;2024-03-23T15:00:02;10.99;54.94
69359;HTU21D;56520;49.066;8.660;2024-03-23T15:02:30;11.17;53.56
69359;HTU21D;56520;49.066;8.660;2024-03-23T15:04:57;11.03;54.61
69359;HTU21D;56520;49.066;8.660;2024-03-23T15:07:23;10.90;56.05
69359;HTU21D;56520;49.066;8.660;2024-03-23T15:09:48;11.10;52.35
69359;HTU21D;56520;49.066;8.660;2024-03-23T15:12:13;10.99;52.96
69359;HTU21D;56520;49.066;8.660;2024-03-23T15:14:39;11.08;52.55
69359;HTU21D;56520;49.066;8.660;2024-03-23T15:17:04;10.87;53.28
69359;HTU21D;56520;49.066;8.660;2024-03-23T15:19:32;10.73;52.34
69359;HTU21D;56520;49.066;8.660;2024-03-23T15:21:58;10.54;52.33
69359;HTU21D;56520;49.066;8.660;2024-03-23T15:24:23;10.34;53.69
69359;HTU21D;56520;49.066;8.660;2024-03-23T15:26:48;10.37;53.71
69359;HTU21D;56520;49.066;8.660;2024-03-23T15:29:15;10.34;55.06
69359;HTU21D;56520;49.066;8.660;2024-03-23T15:31:42;10.39;54.87
69359;HTU21D;56520;49.066;8.660;2024-03-23T15:34:08;10.34;55.03
69359;HTU21D;56520;49.066;8.660;2024-03-23T15:36:37;10.34;56.28
69359;HTU21D;56520;49.066;8.660;2024-03-23T15:39:03;10.42;55.03
69359;HTU21D;56520;49.066;8.660;2024-03-23T15:41:29;10.09;56.11
69359;HTU21D;56520;49.066;8.660;2024-03-23T15:43:55;9.88;57.16
69359;HTU21D;56520;49.066;8.660;2024-03-23T15:46:21;9.71;57.77
69359;HTU21D;56520;49.066;8.660;2024-03-23T15:48:46;9.52;58.00
69359;HTU21D;56520;49.066;8.660;2024-03-23T15:51:12;9.36;59.08
69359;HTU21D;56520;49.066;8.660;2024-03-23T15:53:38;9.29;60.47
69359;HTU21D;56520;49.066;8.660;2024-03-23T15:56:04;9.18;61.34
69359;HTU21D;56520;49.066;8.660;2024-03-23T15:58:31;9.19;64.56
69359;HTU21D;56520;49.066;8.660;2024-03-23T16:01:07;9.17;64.90
69359;HTU21D;56520;49.066;8.660;2024-03-23T16:03:36;8.90;67.62
69359;HTU21D;56520;49.066;8.660;2024-03-23T16:06:04;8.63;68.74
69359;HTU21D;56520;49.066;8.660;2024-03-23T16:08:30;8.46;70.68
69359;HTU21D;56520;49.066;8.660;2024-03-23T16:11:06;8.45;71.68
69359;HTU21D;56520;49.066;8.660;2024-03-23T16:13:34;8.22;71.53
69359;HTU21D;56520;49.066;8.660;2024-03-23T16:16:03;7.89;73.87
69359;HTU21D;56520;49.066;8.660;2024-03-23T16:18:34;7.62;74.25
69359;HTU21D;56520;49.066;8.660;2024-03-23T16:21:02;7.45;75.93
69359;HTU21D;56520;49.066;8.660;2024-03-23T16:23:28;7.38;77.94
69359;HTU21D;56520;49.066;8.660;2024-03-23T16:25:54;7.03;72.58